Time;durP1;ratioP1;P1;durP2;ratioP2;P2;SDS_P1;SDS_P2;PMS_P1;PMS_P2;Temp;Humidity;BMP_temperature;BMP_pressure;BME280_temperature;BME280_humidity;BME280_pressure;Samples;Min_cycle;Max_cycle;Signal;HPM_P1;HPM_P2
2022/09/28 00:02:06;;;;;;;2.70;1.90;;;12.40;81.60;;;;;;5075434;28;20079;-19
2022/09/28 00:04:32;;;;;;;1.73;1.60;;;12.40;81.50;;;;;;5075069;28;20030;-20
2022/09/28 00:06:59;;;;;;;3.35;1.90;;;12.40;81.50;;;;;;5073935;28;20063;-20
2022/09/28 00:09:25;;;;;;;4.65;1.90;;;12.30;81.60;;;;;;5075651;28;20124;-20
2022/09/28 00:11:56;;;;;;;4.80;2.45;;;12.30;81.50;;;;;;5075313;28;20032;-21
2022/09/28 00:14:23;;;;;;;4.05;3.28;;;12.30;81.60;;;;;;5074265;28;20028;-20
2022/09/28 00:16:49;;;;;;;3.80;2.60;;;12.30;82.10;;;;;;5074897;28;20020;-18
2022/09/28 00:19:15;;;;;;;5.50;2.30;;;12.30;81.90;;;;;;5075229;28;20027;-20
2022/09/28 00:21:41;;;;;;;5.18;3.25;;;12.20;81.70;;;;;;5074952;28;20043;-20
2022/09/28 00:24:14;;;;;;;2.92;2.25;;;12.20;81.80;;;;;;5075112;28;20024;-18
2022/09/28 00:26:41;;;;;;;3.60;2.20;;;12.20;81.80;;;;;;5074778;28;20052;-19
2022/09/28 00:29:15;;;;;;;3.38;1.92;;;12.20;81.80;;;;;;5074494;28;20028;-18
2022/09/28 00:31:41;;;;;;;;;;;12.10;81.80;;;;;;5075499;28;20028;-19
2022/09/28 00:34:07;;;;;;;5.40;3.03;;;12.10;82.00;;;;;;5074819;28;20287;-20
2022/09/28 00:36:33;;;;;;;3.33;2.60;;;12.10;81.90;;;;;;5073370;28;20067;-18
2022/09/28 00:39:07;;;;;;;2.08;1.85;;;12.10;82.10;;;;;;5074638;28;20028;-18
2022/09/28 00:41:34;;;;;;;2.65;2.20;;;12.10;81.80;;;;;;5074452;28;20431;-20
2022/09/28 00:44:21;;;;;;;5.03;3.08;;;12.00;81.80;;;;;;5074779;28;20029;-20
2022/09/28 00:46:49;;;;;;;3.33;2.15;;;12.10;81.60;;;;;;5074189;28;20021;-20
2022/09/28 00:49:18;;;;;;;4.47;2.92;;;12.00;81.80;;;;;;5074283;28;20037;-19
2022/09/28 00:51:46;;;;;;;4.95;3.42;;;12.00;82.10;;;;;;5074209;28;20025;-20
2022/09/28 00:54:14;;;;;;;3.67;2.50;;;12.00;82.30;;;;;;5072974;28;20099;-18
2022/09/28 00:56:43;;;;;;;3.08;2.40;;;11.90;81.90;;;;;;5074345;28;20383;-20
2022/09/28 00:59:09;;;;;;;3.20;2.20;;;11.90;81.70;;;;;;5073891;28;20135;-18
2022/09/28 01:01:36;;;;;;;4.20;2.35;;;11.90;81.70;;;;;;5074346;28;20037;-18
2022/09/28 01:04:03;;;;;;;3.47;2.38;;;11.90;81.60;;;;;;5074357;28;20028;-17
2022/09/28 01:06:32;;;;;;;4.55;2.63;;;11.90;81.50;;;;;;5074313;28;20035;-19
2022/09/28 01:09:02;;;;;;;3.10;2.38;;;11.90;81.70;;;;;;5073846;28;20020;-18
2022/09/28 01:11:30;;;;;;;5.00;3.20;;;11.90;81.60;;;;;;5073861;28;20123;-20
2022/09/28 01:13:57;;;;;;;6.32;3.90;;;11.90;81.70;;;;;;5074038;28;20032;-19
2022/09/28 01:16:36;;;;;;;3.55;2.80;;;11.90;81.70;;;;;;5072319;28;20029;-20
2022/09/28 01:19:39;;;;;;;5.85;4.05;;;11.90;81.70;;;;;;5073613;28;20074;-21
2022/09/28 01:22:36;;;;;;;6.57;4.57;;;11.90;81.90;;;;;;5073662;28;20500;-17
2022/09/28 01:25:26;;;;;;;7.28;4.82;;;11.90;82.00;;;;;;5073520;28;20024;-20
2022/09/28 01:28:05;;;;;;;5.95;3.60;;;11.90;82.00;;;;;;5073725;28;20559;-20
2022/09/28 01:30:41;;;;;;;9.07;5.68;;;12.00;82.00;;;;;;5073651;28;20054;-19
2022/09/28 01:33:23;;;;;;;7.95;5.38;;;12.10;82.20;;;;;;5073625;28;20388;-20
2022/09/28 01:35:55;;;;;;;8.85;4.85;;;12.10;82.20;;;;;;5073845;28;20054;-19
2022/09/28 01:38:27;;;;;;;7.07;4.55;;;12.20;82.10;;;;;;5073740;28;20475;-20
2022/09/28 01:40:55;;;;;;;6.63;3.83;;;12.20;82.10;;;;;;5073580;28;20103;-20
2022/09/28 01:43:26;;;;;;;5.80;4.03;;;12.30;82.30;;;;;;5073086;28;20396;-19
2022/09/28 01:46:10;;;;;;;5.72;3.78;;;12.30;82.40;;;;;;5073755;28;20039;-21
2022/09/28 01:49:12;;;;;;;4.18;3.33;;;12.30;82.60;;;;;;5073710;28;20017;-21
2022/09/28 01:51:43;;;;;;;4.70;3.38;;;12.30;82.10;;;;;;5011663;28;20520;-20
2022/09/28 01:54:17;;;;;;;4.10;3.13;;;12.30;82.00;;;;;;5011653;28;20022;-17
2022/09/28 01:56:58;;;;;;;5.25;3.25;;;12.30;82.00;;;;;;5011593;28;20072;-20
2022/09/28 01:59:33;;;;;;;5.18;3.53;;;12.30;82.00;;;;;;5011969;28;20104;-18
2022/09/28 02:02:21;;;;;;;5.72;3.80;;;12.30;82.00;;;;;;5011738;28;20038;-19
2022/09/28 02:05:10;;;;;;;5.70;3.63;;;12.20;82.30;;;;;;5011505;28;20026;-20
2022/09/28 02:07:58;;;;;;;6.53;4.40;;;12.20;82.70;;;;;;5011448;28;20124;-19
2022/09/28 02:10:32;;;;;;;5.95;3.72;;;12.20;82.80;;;;;;5011679;28;20060;-20
2022/09/28 02:13:24;;;;;;;5.60;3.60;;;12.10;83.00;;;;;;5011192;28;20033;-21
2022/09/28 02:16:08;;;;;;;5.57;3.40;;;12.10;82.70;;;;;;5005284;28;20040;-21
2022/09/28 02:18:34;;;;;;;;;;;12.10;82.60;;;;;;5011922;28;20037;-18
2022/09/28 02:21:14;;;;;;;5.25;3.38;;;12.00;82.50;;;;;;5011081;28;20000;-21
2022/09/28 02:23:55;;;;;;;3.83;3.03;;;12.00;82.30;;;;;;5011271;28;20038;-20
2022/09/28 02:26:26;;;;;;;4.20;2.85;;;12.00;82.30;;;;;;5011205;28;20030;-20
2022/09/28 02:28:52;;;;;;;5.93;3.65;;;12.00;82.30;;;;;;5067250;28;20040;-21
2022/09/28 02:31:18;;;;;;;4.10;3.28;;;12.00;82.30;;;;;;5077342;28;20086;-21
2022/09/28 02:33:46;;;;;;;5.70;3.42;;;12.00;82.30;;;;;;5077248;28;20479;-20
2022/09/28 02:36:13;;;;;;;4.35;2.97;;;12.00;82.30;;;;;;5076922;28;20028;-20
2022/09/28 02:38:39;;;;;;;3.63;2.80;;;11.90;82.30;;;;;;5077049;28;20028;-21
2022/09/28 02:41:29;;;;;;;5.47;3.22;;;11.90;82.30;;;;;;5076363;28;20025;-16
2022/09/28 02:44:42;;;;;;;4.30;3.10;;;11.90;82.20;;;;;;5076680;28;20048;-21
2022/09/28 02:47:30;;;;;;;4.13;2.72;;;11.90;82.20;;;;;;5049152;28;20399;-19
2022/09/28 02:50:17;;;;;;;5.25;3.55;;;11.90;82.20;;;;;;5076656;28;20040;-19
2022/09/28 02:53:15;;;;;;;6.32;3.45;;;11.90;82.30;;;;;;5076846;28;20066;-20
2022/09/28 02:55:53;;;;;;;3.72;3.05;;;11.80;82.30;;;;;;5072741;28;20228;-21
2022/09/28 02:58:39;;;;;;;4.55;3.00;;;11.80;82.20;;;;;;5076473;28;20024;-19
2022/09/28 03:01:17;;;;;;;6.13;3.70;;;11.80;82.30;;;;;;5044943;28;20040;-20
2022/09/28 03:04:04;;;;;;;4.05;3.20;;;11.70;82.60;;;;;;5075122;28;20040;-21
2022/09/28 03:06:40;;;;;;;4.88;3.35;;;11.70;82.50;;;;;;5076606;28;20045;-20
2022/09/28 03:09:19;;;;;;;6.80;4.10;;;11.70;82.60;;;;;;5076120;28;20347;-18
2022/09/28 03:11:48;;;;;;;4.97;3.70;;;11.60;82.40;;;;;;5076487;28;20102;-19
2022/09/28 03:14:14;;;;;;;6.80;3.85;;;11.50;82.60;;;;;;5076063;28;20029;-20
2022/09/28 03:16:44;;;;;;;6.55;3.92;;;11.50;82.70;;;;;;5076399;28;20017;-21
2022/09/28 03:19:11;;;;;;;7.32;4.22;;;11.50;82.90;;;;;;5075834;28;20033;-19
2022/09/28 03:21:38;;;;;;;3.80;3.08;;;11.40;83.00;;;;;;5075999;28;20150;-20
2022/09/28 03:24:04;;;;;;;4.95;3.30;;;11.40;83.00;;;;;;5076179;28;20020;-20
2022/09/28 03:26:31;;;;;;;3.95;3.00;;;11.40;83.00;;;;;;5075861;28;20555;-21
2022/09/28 03:28:57;;;;;;;3.42;2.72;;;11.40;83.00;;;;;;5075800;28;20488;-21
2022/09/28 03:31:23;;;;;;;4.43;2.95;;;11.40;83.10;;;;;;5076101;28;20039;-20
2022/09/28 03:33:50;;;;;;;4.22;3.13;;;11.40;83.10;;;;;;5075824;28;20086;-19
2022/09/28 03:36:17;;;;;;;6.03;3.38;;;11.40;82.90;;;;;;5076066;28;20030;-20
2022/09/28 03:38:43;;;;;;;5.10;3.45;;;11.50;82.90;;;;;;5075678;28;20036;-20
2022/09/28 03:41:08;;;;;;;5.05;3.90;;;11.60;83.00;;;;;;5074822;28;20020;-21
2022/09/28 03:43:34;;;;;;;5.28;3.58;;;11.60;83.10;;;;;;5075361;28;20037;-20
2022/09/28 03:46:01;;;;;;;4.25;2.90;;;11.60;82.90;;;;;;5075589;28;20031;-20
2022/09/28 03:48:33;;;;;;;5.53;2.92;;;11.60;82.90;;;;;;5075891;28;20108;-21
2022/09/28 03:51:02;;;;;;;4.70;3.00;;;11.60;82.90;;;;;;5075567;28;20024;-20
2022/09/28 03:53:31;;;;;;;3.60;2.75;;;11.70;83.00;;;;;;5075960;28;20016;-20
2022/09/28 03:56:03;;;;;;;6.18;3.60;;;11.70;82.80;;;;;;5075709;28;20024;-18
2022/09/28 03:58:29;;;;;;;4.45;3.13;;;11.80;82.80;;;;;;5074260;28;20055;-20
2022/09/28 04:01:00;;;;;;;5.00;3.63;;;11.80;83.00;;;;;;5075156;28;20480;-19
2022/09/28 04:03:25;;;;;;;4.13;3.10;;;11.90;83.10;;;;;;5075192;28;20559;-22
2022/09/28 04:05:52;;;;;;;4.70;3.53;;;11.90;83.00;;;;;;5075273;28;20107;-21
2022/09/28 04:08:19;;;;;;;5.72;3.85;;;11.90;82.80;;;;;;5075338;28;20103;-20
2022/09/28 04:10:46;;;;;;;5.15;3.50;;;11.90;82.90;;;;;;5075292;28;20052;-21
2022/09/28 04:13:13;;;;;;;5.68;3.25;;;11.90;82.90;;;;;;5075310;28;20506;-19
2022/09/28 04:15:38;;;;;;;5.22;3.78;;;12.00;82.80;;;;;;5075132;28;20029;-19
2022/09/28 04:18:09;;;;;;;4.82;3.10;;;12.00;82.70;;;;;;5074957;28;20024;-21
2022/09/28 04:20:36;;;;;;;4.10;3.00;;;12.10;82.70;;;;;;5075332;28;20074;-21
2022/09/28 04:23:02;;;;;;;6.38;3.30;;;12.10;82.80;;;;;;5074941;28;20109;-20
2022/09/28 04:25:27;;;;;;;4.13;3.13;;;12.10;82.80;;;;;;5075090;28;20422;-20
2022/09/28 04:30:37;;;;;;;;;;;12.20;82.60;;;;;;5075308;28;20093;-21
2022/09/28 04:33:03;;;;;;;9.57;4.88;;;12.30;82.80;;;;;;5074818;28;19991;-20
2022/09/28 04:35:29;;;;;;;8.07;5.60;;;12.20;82.60;;;;;;5075092;28;20103;-20
2022/09/28 04:37:54;;;;;;;9.15;5.30;;;12.20;82.60;;;;;;5074633;28;20029;-22
2022/09/28 04:40:20;;;;;;;5.40;3.72;;;12.20;82.70;;;;;;5074879;28;20035;-21
2022/09/28 04:42:54;;;;;;;5.10;3.60;;;12.20;82.70;;;;;;5073863;28;20052;-23
2022/09/28 04:45:19;;;;;;;6.20;3.30;;;12.20;82.70;;;;;;5074860;28;20021;-19
2022/09/28 04:47:45;;;;;;;5.43;3.63;;;12.20;82.70;;;;;;5074598;28;20035;-21
2022/09/28 04:50:11;;;;;;;3.33;2.90;;;12.30;82.80;;;;;;5074587;28;20063;-20
2022/09/28 04:52:37;;;;;;;3.72;3.17;;;12.30;82.80;;;;;;5073621;28;20059;-20
2022/09/28 04:55:05;;;;;;;3.80;3.10;;;12.30;82.70;;;;;;5074344;28;20571;-21
2022/09/28 04:57:34;;;;;;;4.85;3.03;;;12.30;82.60;;;;;;5074129;28;20074;-21
2022/09/28 05:00:00;;;;;;;5.35;3.88;;;12.30;82.50;;;;;;5074168;28;20055;-21
2022/09/28 05:02:26;;;;;;;5.03;3.70;;;12.30;82.80;;;;;;5074318;28;20052;-19
2022/09/28 05:04:54;;;;;;;4.55;3.33;;;12.30;82.90;;;;;;5072666;28;20032;-21
2022/09/28 05:07:20;;;;;;;4.35;3.08;;;12.30;82.90;;;;;;5074061;28;20120;-21
2022/09/28 05:09:46;;;;;;;8.35;4.80;;;12.20;82.90;;;;;;5073970;28;20099;-21
2022/09/28 05:12:12;;;;;;;7.20;5.00;;;12.20;83.10;;;;;;5073818;28;20024;-19
2022/09/28 05:14:37;;;;;;;7.03;4.20;;;12.20;83.10;;;;;;5074218;28;20024;-20
2022/09/28 05:17:04;;;;;;;5.90;4.18;;;12.20;83.10;;;;;;5073645;28;20029;-20
2022/09/28 05:19:30;;;;;;;6.43;4.30;;;12.20;83.40;;;;;;5074253;28;20480;-21
2022/09/28 05:21:56;;;;;;;6.63;4.25;;;12.20;83.50;;;;;;5073972;28;20031;-20
2022/09/28 05:24:23;;;;;;;4.90;3.42;;;12.20;83.40;;;;;;5073697;28;20516;-21
2022/09/28 05:26:49;;;;;;;5.85;3.67;;;12.20;83.30;;;;;;5073603;28;20032;-20
2022/09/28 05:29:15;;;;;;;4.32;3.28;;;12.30;83.30;;;;;;5073652;28;20024;-20
2022/09/28 05:31:40;;;;;;;4.35;2.80;;;12.30;83.40;;;;;;5072310;28;20119;-21
2022/09/28 05:34:06;;;;;;;3.83;3.08;;;12.30;83.40;;;;;;5073566;28;20020;-21
2022/09/28 05:36:32;;;;;;;4.47;3.28;;;12.30;83.30;;;;;;5073483;28;20033;-20
2022/09/28 05:38:58;;;;;;;3.45;2.83;;;12.40;83.20;;;;;;5073387;28;20032;-20
2022/09/28 05:41:24;;;;;;;3.70;2.92;;;12.40;83.00;;;;;;5073193;28;20032;-21
2022/09/28 05:43:51;;;;;;;2.67;2.47;;;12.50;82.90;;;;;;5073715;28;20048;-21
2022/09/28 05:46:17;;;;;;;3.20;2.30;;;12.50;82.70;;;;;;5073623;28;20025;-21
2022/09/28 05:48:43;;;;;;;3.88;3.08;;;12.60;82.60;;;;;;5073530;28;20039;-20
2022/09/28 05:51:09;;;;;;;3.53;2.65;;;12.60;82.60;;;;;;5073095;28;20423;-19
2022/09/28 05:53:35;;;;;;;4.03;2.78;;;12.70;82.40;;;;;;5073626;28;20028;-20
2022/09/28 05:56:01;;;;;;;4.15;2.50;;;12.70;82.10;;;;;;5073449;28;20074;-22
2022/09/28 05:58:28;;;;;;;2.85;2.55;;;12.80;82.00;;;;;;5073397;28;20033;-20
2022/09/28 06:00:57;;;;;;;4.18;2.50;;;12.80;81.80;;;;;;5073287;28;20036;-19
2022/09/28 06:03:25;;;;;;;4.03;2.90;;;12.80;81.70;;;;;;5073135;28;20565;-20
2022/09/28 06:05:52;;;;;;;5.55;3.10;;;12.90;81.60;;;;;;5073460;28;20032;-21
2022/09/28 06:08:17;;;;;;;4.05;3.05;;;12.90;81.50;;;;;;5073134;28;20369;-21
2022/09/28 06:10:43;;;;;;;5.60;3.25;;;12.90;81.60;;;;;;5073100;28;20037;-20
2022/09/28 06:13:10;;;;;;;3.75;2.83;;;13.00;81.50;;;;;;5072827;28;20025;-22
2022/09/28 06:15:38;;;;;;;5.03;2.88;;;13.00;81.30;;;;;;5073300;28;20480;-19
2022/09/28 06:18:06;;;;;;;4.05;2.88;;;13.10;81.20;;;;;;5073301;28;20033;-20
2022/09/28 06:20:40;;;;;;;4.55;2.85;;;13.10;81.00;;;;;;5073300;28;20032;-20
2022/09/28 06:23:06;;;;;;;3.63;3.00;;;13.20;80.80;;;;;;5073094;28;20086;-20
2022/09/28 06:25:32;;;;;;;5.22;2.78;;;13.30;80.90;;;;;;5072952;28;20038;-19
2022/09/28 06:27:59;;;;;;;2.65;2.17;;;13.30;80.50;;;;;;5073125;28;20024;-20
2022/09/28 06:30:26;;;;;;;4.35;2.58;;;13.40;80.40;;;;;;5073391;28;20099;-19
2022/09/28 06:32:55;;;;;;;4.38;2.60;;;13.40;80.30;;;;;;5072907;28;20020;-21
2022/09/28 06:35:23;;;;;;;3.63;2.95;;;13.50;80.40;;;;;;5073166;28;20033;-20
2022/09/28 06:37:49;;;;;;;2.88;2.20;;;13.60;80.60;;;;;;5072844;28;20025;-19
2022/09/28 06:40:15;;;;;;;3.38;2.40;;;13.60;78.40;;;;;;5073047;28;20029;-18
2022/09/28 06:42:40;;;;;;;3.33;2.50;;;13.70;78.60;;;;;;5072559;28;20060;-20
2022/09/28 06:45:07;;;;;;;4.88;2.30;;;13.70;77.80;;;;;;5072775;28;20507;-19
2022/09/28 06:47:33;;;;;;;3.17;1.70;;;13.80;77.60;;;;;;5073053;28;20099;-20
2022/09/28 06:49:59;;;;;;;2.30;1.80;;;13.80;75.20;;;;;;5073002;28;20108;-21
2022/09/28 06:52:25;;;;;;;4.10;1.88;;;13.80;77.30;;;;;;5072678;28;20025;-20
2022/09/28 06:54:51;;;;;;;2.22;1.85;;;13.90;77.40;;;;;;5072727;28;20032;-20
2022/09/28 06:57:18;;;;;;;2.28;1.77;;;13.90;76.50;;;;;;5073001;28;20028;-19
2022/09/28 06:59:44;;;;;;;4.07;2.20;;;14.00;76.50;;;;;;5072918;28;20115;-21
2022/09/28 07:02:14;;;;;;;3.15;2.10;;;14.00;75.90;;;;;;5072502;28;20440;-20
2022/09/28 07:04:42;;;;;;;4.95;1.98;;;14.10;75.70;;;;;;5072636;28;20035;-18
2022/09/28 07:07:10;;;;;;;3.13;1.83;;;14.10;75.90;;;;;;5072320;28;20029;-20
2022/09/28 07:09:36;;;;;;;3.25;1.77;;;14.20;76.10;;;;;;5072897;28;20391;-20
2022/09/28 07:12:08;;;;;;;2.40;1.70;;;14.20;75.10;;;;;;5072951;28;20020;-19
2022/09/28 07:14:35;;;;;;;3.60;1.85;;;14.20;75.20;;;;;;5072852;28;20133;-20
2022/09/28 07:17:02;;;;;;;1.77;1.67;;;14.30;75.50;;;;;;5076257;28;20048;-20
2022/09/28 07:19:28;;;;;;;2.35;1.77;;;14.40;75.20;;;;;;5076133;28;20029;-21
2022/09/28 07:21:55;;;;;;;5.43;2.20;;;14.40;74.80;;;;;;5076302;28;20036;-18
2022/09/28 07:24:22;;;;;;;2.92;1.90;;;14.40;74.40;;;;;;5076355;28;20032;-19
2022/09/28 07:26:48;;;;;;;2.28;1.77;;;14.50;74.20;;;;;;5075959;28;20043;-20
2022/09/28 07:29:14;;;;;;;1.80;1.70;;;14.50;74.40;;;;;;5074685;28;20399;-18
2022/09/28 07:31:39;;;;;;;3.88;1.90;;;14.60;74.80;;;;;;5076150;28;20074;-20
2022/09/28 07:34:05;;;;;;;5.85;1.85;;;14.60;74.80;;;;;;5076159;28;20032;-21
2022/09/28 07:36:33;;;;;;;1.95;1.77;;;14.70;74.30;;;;;;5076054;28;20082;-19
2022/09/28 07:39:03;;;;;;;3.67;1.55;;;14.70;74.30;;;;;;5075629;28;20502;-20
2022/09/28 07:41:31;;;;;;;5.13;1.98;;;14.80;73.70;;;;;;5075405;28;20032;-20
2022/09/28 07:44:04;;;;;;;2.70;1.70;;;14.80;73.40;;;;;;5075714;28;20020;-20
2022/09/28 07:46:35;;;;;;;1.80;1.65;;;14.80;72.90;;;;;;5075958;28;20021;-18
2022/09/28 07:49:05;;;;;;;2.95;1.60;;;14.80;72.80;;;;;;5075447;28;20082;-19
2022/09/28 07:51:32;;;;;;;2.50;1.65;;;14.90;73.40;;;;;;5076023;28;20024;-19
2022/09/28 07:53:58;;;;;;;2.95;1.83;;;14.90;73.90;;;;;;5075773;28;20392;-21
2022/09/28 07:56:24;;;;;;;3.92;1.55;;;15.00;73.60;;;;;;5075718;28;20036;-20
2022/09/28 07:58:51;;;;;;;2.63;1.63;;;15.00;73.30;;;;;;5075135;28;20024;-20
2022/09/28 08:01:18;;;;;;;3.08;2.08;;;15.10;72.90;;;;;;5075580;28;20020;-19
2022/09/28 08:03:46;;;;;;;1.75;1.60;;;15.20;72.70;;;;;;5075337;28;20048;-20
2022/09/28 08:06:15;;;;;;;2.33;1.70;;;15.30;72.50;;;;;;5075291;28;20078;-19
2022/09/28 08:08:44;;;;;;;2.30;1.50;;;15.40;72.40;;;;;;5075546;28;20028;-20
2022/09/28 08:11:16;;;;;;;1.52;1.25;;;15.50;70.50;;;;;;5074978;28;20104;-20
2022/09/28 08:13:45;;;;;;;2.38;1.50;;;15.70;70.60;;;;;;5075039;28;20503;-20
2022/09/28 08:16:11;;;;;;;1.92;1.45;;;15.70;70.50;;;;;;5075053;28;20107;-20
2022/09/28 08:18:37;;;;;;;2.90;1.40;;;15.90;70.20;;;;;;5075023;28;20480;-20
2022/09/28 08:23:50;;;;;;;2.92;1.60;;;16.10;69.40;;;;;;5075315;28;20527;-19
2022/09/28 08:26:16;;;;;;;2.03;1.33;;;16.40;70.20;;;;;;5075012;28;20020;-20
2022/09/28 08:28:43;;;;;;;2.70;1.60;;;16.80;68.70;;;;;;5074747;28;20476;-20
2022/09/28 08:31:09;;;;;;;4.38;1.60;;;17.10;65.70;;;;;;5074582;28;20445;-20
2022/09/28 08:33:35;;;;;;;2.05;1.48;;;17.30;65.00;;;;;;5075236;28;20048;-20
2022/09/28 08:36:03;;;;;;;2.60;1.73;;;17.40;64.10;;;;;;5074975;28;20024;-19
2022/09/28 08:38:31;;;;;;;3.05;1.60;;;17.50;64.30;;;;;;5074875;28;20103;-21
2022/09/28 08:41:19;;;;;;;3.78;1.40;;;17.40;63.50;;;;;;5074687;28;20032;-20
2022/09/28 08:44:01;;;;;;;3.90;1.10;;;17.50;64.20;;;;;;5074478;28;20043;-20
2022/09/28 08:46:36;;;;;;;2.28;1.40;;;17.40;64.20;;;;;;5074836;28;20029;-20
2022/09/28 08:49:36;;;;;;;1.35;1.20;;;17.40;63.30;;;;;;5074559;28;20098;-21
2022/09/28 08:52:07;;;;;;;1.83;1.35;;;17.40;63.40;;;;;;5074749;28;20032;-19
2022/09/28 08:54:44;;;;;;;2.80;1.30;;;17.30;64.50;;;;;;5074658;28;20024;-20
2022/09/28 08:57:37;;;;;;;1.90;1.30;;;17.20;64.80;;;;;;5074081;28;20107;-19
2022/09/28 09:00:05;;;;;;;2.65;1.33;;;17.30;64.00;;;;;;5074588;28;20387;-20
2022/09/28 09:02:33;;;;;;;1.35;1.15;;;17.20;64.10;;;;;;5074235;28;20412;-20
2022/09/28 09:05:01;;;;;;;3.63;1.30;;;17.10;64.80;;;;;;5072666;28;20036;-20
2022/09/28 09:07:43;;;;;;;2.75;1.13;;;17.20;64.90;;;;;;5074086;28;20509;-20
2022/09/28 09:10:50;;;;;;;3.85;2.10;;;17.20;63.40;;;;;;5074018;28;20029;-21
2022/09/28 09:13:39;;;;;;;4.82;2.03;;;17.20;63.90;;;;;;5125857;22;20052;-16
2022/09/28 09:16:14;;;;;;;3.08;2.08;;;17.30;63.20;;;;;;5047794;28;20075;-15
2022/09/28 09:19:15;;;;;;;3.63;2.47;;;17.30;63.70;;;;;;5054251;28;20065;-15
2022/09/28 09:21:50;;;;;;;4.82;2.60;;;17.20;64.00;;;;;;5053774;28;20091;-15
2022/09/28 09:24:26;;;;;;;6.05;2.80;;;17.20;62.60;;;;;;5054140;28;20074;-16
2022/09/28 09:27:13;;;;;;;2.78;1.63;;;17.20;63.40;;;;;;5053604;28;20028;-16
2022/09/28 09:29:58;;;;;;;3.70;1.50;;;17.30;63.50;;;;;;5053934;28;20045;-15
2022/09/28 09:32:27;;;;;;;;;;;17.40;63.80;;;;;;5052917;28;20415;-16
2022/09/28 09:35:06;;;;;;;2.40;1.60;;;17.50;63.90;;;;;;5053375;28;19916;-16
2022/09/28 09:37:41;;;;;;;2.55;1.38;;;17.60;64.60;;;;;;5053239;28;20052;-16
2022/09/28 09:40:40;;;;;;;2.30;1.30;;;17.80;62.40;;;;;;5152703;22;20056;-17
2022/09/28 09:43:16;;;;;;;2.55;1.20;;;17.80;62.10;;;;;;5093722;28;20134;-16
2022/09/28 09:45:48;;;;;;;2.38;1.50;;;17.80;61.90;;;;;;5094144;28;20371;-16
2022/09/28 09:48:26;;;;;;;2.53;1.50;;;17.90;62.30;;;;;;5093731;28;20028;-16
2022/09/28 09:50:58;;;;;;;1.67;1.48;;;18.00;62.60;;;;;;5093496;28;20024;-16
2022/09/28 09:53:41;;;;;;;2.20;1.33;;;18.10;63.40;;;;;;5093954;28;20027;-16
2022/09/28 09:56:37;;;;;;;3.07;1.50;;;18.10;61.20;;;;;;5093830;28;20023;-18
2022/09/28 09:59:17;;;;;;;2.38;1.25;;;18.30;61.20;;;;;;5086930;28;20028;-17
2022/09/28 10:01:44;;;;;;;2.55;1.83;;;18.40;61.10;;;;;;5093445;28;20386;-16
2022/09/28 10:04:24;;;;;;;2.10;1.60;;;18.50;59.70;;;;;;5093728;28;20087;-16
2022/09/28 10:06:56;;;;;;;2.92;1.48;;;18.60;60.30;;;;;;5092014;28;20411;-17
2022/09/28 10:09:24;;;;;;;3.40;1.73;;;18.70;61.10;;;;;;5093657;28;20024;-17
2022/09/28 10:11:51;;;;;;;3.15;1.80;;;18.80;60.50;;;;;;5094071;28;20028;-16
2022/09/28 10:14:21;;;;;;;1.63;1.38;;;18.70;59.90;;;;;;5093538;28;20058;-17
2022/09/28 10:16:51;;;;;;;1.85;1.50;;;18.80;61.00;;;;;;5093057;28;20421;-17
2022/09/28 10:19:20;;;;;;;2.15;1.30;;;18.80;61.20;;;;;;5093273;28;20106;-17
2022/09/28 10:21:51;;;;;;;1.58;1.40;;;18.80;60.50;;;;;;5093650;28;20059;-17
2022/09/28 10:24:40;;;;;;;4.07;1.65;;;18.90;60.30;;;;;;5093415;28;20050;-18
2022/09/28 10:27:16;;;;;;;1.80;1.60;;;19.00;59.90;;;;;;5093004;28;20059;-16
2022/09/28 10:30:01;;;;;;;3.58;1.58;;;19.10;61.20;;;;;;5093716;28;20391;-16
2022/09/28 10:32:45;;;;;;;4.25;1.75;;;19.30;60.90;;;;;;5093155;28;20024;-17
2022/09/28 10:35:17;;;;;;;2.00;1.42;;;19.50;60.40;;;;;;5093156;28;20027;-16
2022/09/28 10:38:03;;;;;;;3.88;1.55;;;19.70;59.70;;;;;;5093174;28;20049;-16
2022/09/28 10:40:57;;;;;;;1.77;1.45;;;20.10;58.60;;;;;;5092847;28;20048;-16
2022/09/28 10:43:32;;;;;;;1.65;1.55;;;20.40;57.00;;;;;;5093270;28;20033;-16
2022/09/28 10:46:22;;;;;;;2.42;1.42;;;20.70;57.40;;;;;;5093366;28;20088;-17
2022/09/28 10:48:53;;;;;;;2.95;1.52;;;20.90;54.00;;;;;;5092931;28;20032;-18
2022/09/28 10:51:20;;;;;;;2.05;1.45;;;21.00;55.60;;;;;;5096108;28;20020;-16
2022/09/28 10:54:01;;;;;;;1.85;1.23;;;21.20;55.70;;;;;;5096966;28;20107;-18
2022/09/28 10:56:34;;;;;;;2.50;1.70;;;21.30;54.90;;;;;;5097252;28;20066;-16
2022/09/28 10:59:00;;;;;;;3.60;1.33;;;21.30;55.20;;;;;;5097002;28;20102;-16
2022/09/28 11:01:32;;;;;;;2.53;1.40;;;21.40;54.50;;;;;;5097378;28;20020;-17
2022/09/28 11:04:05;;;;;;;3.42;1.90;;;21.50;54.80;;;;;;5095570;28;20023;-16
2022/09/28 11:06:39;;;;;;;1.65;1.30;;;21.90;55.30;;;;;;5097028;28;20024;-16
2022/09/28 11:09:20;;;;;;;;;;;22.10;53.70;;;;;;5095660;28;20027;-17
2022/09/28 11:11:46;;;;;;;3.75;1.75;;;22.40;54.90;;;;;;5097221;28;19904;-17
2022/09/28 11:14:37;;;;;;;2.45;1.67;;;22.40;52.60;;;;;;5096552;28;20150;-16
2022/09/28 11:17:26;;;;;;;1.52;1.25;;;22.40;49.50;;;;;;5088792;28;20032;-17
2022/09/28 11:19:54;;;;;;;2.55;1.83;;;22.30;50.10;;;;;;5096457;28;20027;-15
2022/09/28 11:22:37;;;;;;;3.13;1.55;;;22.10;52.70;;;;;;5096647;28;20051;-15
2022/09/28 11:25:23;;;;;;;2.30;1.63;;;22.10;51.50;;;;;;5096115;28;20072;-18
2022/09/28 11:27:51;;;;;;;3.55;1.85;;;22.00;53.30;;;;;;5096337;28;20353;-17
2022/09/28 11:30:25;;;;;;;1.90;1.70;;;21.80;53.60;;;;;;5096583;28;20035;-17
2022/09/28 11:32:52;;;;;;;;;;;21.90;53.90;;;;;;5096618;28;20027;-17
2022/09/28 11:35:36;;;;;;;3.03;1.75;;;21.90;52.00;;;;;;5096442;28;19935;-16
2022/09/28 11:38:30;;;;;;;2.75;1.45;;;22.20;52.40;;;;;;5096637;28;20031;-16
2022/09/28 11:41:05;;;;;;;2.92;1.63;;;22.60;52.30;;;;;;5095586;28;20051;-16
2022/09/28 11:43:57;;;;;;;3.42;2.15;;;23.10;51.80;;;;;;5096203;28;20479;-17
2022/09/28 11:46:28;;;;;;;2.70;2.00;;;23.60;49.70;;;;;;5096451;28;20028;-14
2022/09/28 11:49:06;;;;;;;3.03;1.60;;;23.60;50.00;;;;;;5095723;28;20434;-16
2022/09/28 11:51:35;;;;;;;4.40;1.77;;;23.90;51.10;;;;;;5096363;28;20028;-16
2022/09/28 11:54:20;;;;;;;2.22;1.90;;;24.10;50.10;;;;;;5096002;28;20032;-16
2022/09/28 11:56:48;;;;;;;2.42;1.40;;;24.20;49.50;;;;;;5095730;28;20027;-16
2022/09/28 11:59:27;;;;;;;3.47;1.75;;;24.10;50.30;;;;;;5095679;28;20020;-16
2022/09/28 12:01:55;;;;;;;2.17;1.60;;;24.20;49.10;;;;;;5095406;28;20028;-16
2022/09/28 12:04:47;;;;;;;5.25;1.83;;;24.40;49.80;;;;;;5095563;28;20046;-15
2022/09/28 12:07:17;;;;;;;3.33;1.70;;;24.40;48.90;;;;;;5095562;28;20055;-15
2022/09/28 12:09:52;;;;;;;2.95;1.48;;;24.30;49.70;;;;;;5095751;28;20039;-16
2022/09/28 12:12:38;;;;;;;1.80;1.50;;;24.20;49.10;;;;;;5095717;28;20031;-16
2022/09/28 12:15:15;;;;;;;2.17;1.60;;;24.00;49.70;;;;;;5095547;28;20089;-16
2022/09/28 12:17:57;;;;;;;1.98;1.80;;;23.80;48.80;;;;;;5095791;28;20028;-17
2022/09/28 12:20:33;;;;;;;2.63;1.42;;;23.40;51.00;;;;;;5095569;28;20506;-16
2022/09/28 12:22:59;;;;;;;2.83;1.50;;;23.30;51.20;;;;;;5095251;28;20043;-16
2022/09/28 12:25:28;;;;;;;2.05;1.10;;;23.20;51.50;;;;;;5095303;28;20028;-16
2022/09/28 12:28:00;;;;;;;2.55;1.63;;;23.20;51.50;;;;;;5095222;28;20052;-16
2022/09/28 12:30:32;;;;;;;3.15;1.52;;;23.10;51.30;;;;;;5095227;28;20031;-15
2022/09/28 12:33:03;;;;;;;3.38;1.65;;;22.90;52.00;;;;;;5095116;28;20395;-16
2022/09/28 12:36:06;;;;;;;2.85;1.88;;;22.60;53.10;;;;;;5095320;28;20463;-15
2022/09/28 12:38:43;;;;;;;1.95;1.58;;;22.50;53.40;;;;;;5095257;28;20056;-16
2022/09/28 12:41:27;;;;;;;2.92;1.70;;;22.50;53.90;;;;;;5094340;28;20503;-16
2022/09/28 12:44:02;;;;;;;5.05;1.55;;;22.60;53.00;;;;;;5095170;28;20036;-16
2022/09/28 12:47:08;;;;;;;5.93;2.03;;;22.50;53.30;;;;;;5095024;28;20039;-15
2022/09/28 12:49:58;;;;;;;3.40;1.75;;;22.40;53.70;;;;;;5095084;28;20020;-15
2022/09/28 12:52:41;;;;;;;3.47;1.90;;;22.20;53.00;;;;;;5094856;28;20085;-17
2022/09/28 12:55:29;;;;;;;2.63;1.88;;;22.10;52.90;;;;;;5094710;28;20028;-16
2022/09/28 12:58:07;;;;;;;2.30;1.80;;;22.20;53.90;;;;;;5094735;28;20030;-16
2022/09/28 13:00:47;;;;;;;3.83;1.92;;;22.20;54.10;;;;;;5094481;28;20047;-16
2022/09/28 13:03:45;;;;;;;2.70;1.90;;;22.20;53.90;;;;;;5094680;28;20024;-15
2022/09/28 13:06:39;;;;;;;2.90;1.83;;;22.30;53.60;;;;;;5094426;28;20383;-15
2022/09/28 13:09:21;;;;;;;2.85;1.83;;;22.10;53.70;;;;;;5065241;28;20024;-16
2022/09/28 13:11:53;;;;;;;3.90;2.00;;;22.10;53.70;;;;;;5094504;28;20118;-16
2022/09/28 13:14:31;;;;;;;2.63;2.10;;;22.10;54.50;;;;;;5093864;28;20024;-16
2022/09/28 13:17:15;;;;;;;3.63;2.25;;;22.00;54.60;;;;;;5094007;28;20051;-16
2022/09/28 13:19:49;;;;;;;2.63;1.83;;;21.90;55.40;;;;;;5094424;28;20029;-15
2022/09/28 13:22:24;;;;;;;3.08;2.20;;;21.80;55.80;;;;;;5094170;28;20044;-17
2022/09/28 13:24:54;;;;;;;3.25;2.20;;;21.90;55.60;;;;;;5093777;28;20482;-16